createdAt,value
2018-03-31T00:01:49.710Z,18.57
2018-03-31T00:04:17.548Z,17.47
2018-03-31T00:06:45.344Z,18.60
2018-03-31T00:09:13.217Z,17.83
2018-03-31T00:11:40.999Z,18.40
2018-03-31T00:14:08.814Z,19.27
2018-03-31T00:16:36.652Z,19.60
2018-03-31T00:19:04.548Z,16.70
2018-03-31T00:21:32.338Z,19.03
2018-03-31T00:24:00.205Z,18.90
2018-03-31T00:26:28.007Z,18.83
2018-03-31T00:28:57.477Z,18.47
2018-03-31T00:31:25.240Z,19.50
2018-03-31T00:33:53.106Z,19.70
2018-03-31T00:36:20.890Z,17.63
2018-03-31T00:38:48.715Z,19.03
2018-03-31T00:41:16.580Z,18.13
2018-03-31T00:43:44.354Z,18.07
2018-03-31T00:46:12.142Z,16.67
2018-03-31T00:48:39.940Z,18.10
2018-03-31T00:51:07.739Z,18.07
2018-03-31T00:53:35.525Z,18.17
2018-03-31T00:56:03.366Z,16.63
2018-03-31T00:58:31.129Z,17.90
2018-03-31T01:00:58.941Z,17.37
2018-03-31T01:03:26.803Z,17.07
2018-03-31T01:05:54.608Z,17.47
2018-03-31T01:08:22.458Z,16.50
2018-03-31T01:10:50.252Z,16.03
2018-03-31T01:13:18.048Z,18.43
2018-03-31T01:15:45.845Z,15.90
2018-03-31T01:18:13.664Z,16.50
2018-03-31T01:20:41.448Z,16.53
2018-03-31T01:23:09.231Z,15.90
2018-03-31T01:25:37.097Z,15.40
2018-03-31T01:28:04.877Z,15.20
2018-03-31T01:30:32.660Z,16.50
2018-03-31T01:33:00.442Z,16.13
2018-03-31T01:35:28.214Z,15.90
2018-03-31T01:37:58.207Z,16.07
2018-03-31T01:40:26.370Z,16.80
2018-03-31T01:42:54.171Z,17.80
2018-03-31T01:45:21.956Z,15.67
2018-03-31T01:47:49.754Z,16.23
2018-03-31T01:50:17.599Z,16.73
2018-03-31T01:52:45.636Z,16.93
2018-03-31T01:55:13.501Z,16.03
2018-03-31T01:57:41.287Z,16.47
2018-03-31T02:00:09.087Z,15.43
2018-03-31T02:02:37.044Z,16.63
2018-03-31T02:05:05.221Z,15.70
2018-03-31T02:07:33.056Z,15.53
2018-03-31T02:10:00.836Z,16.30
2018-03-31T02:12:28.750Z,17.43
2018-03-31T02:14:57.516Z,17.00
2018-03-31T02:17:25.325Z,17.80
2018-03-31T02:19:53.106Z,16.63
2018-03-31T02:22:20.958Z,15.30
2018-03-31T02:24:48.860Z,16.73
2018-03-31T02:27:16.643Z,16.83
2018-03-31T02:29:44.441Z,17.80
2018-03-31T02:32:12.225Z,16.43
2018-03-31T02:34:40.009Z,18.33
2018-03-31T02:37:07.788Z,18.33
2018-03-31T02:39:35.657Z,17.33
2018-03-31T02:42:03.547Z,17.33
2018-03-31T02:44:32.557Z,17.37
2018-03-31T02:47:00.353Z,17.33
2018-03-31T02:49:28.337Z,17.87
2018-03-31T02:51:56.165Z,17.33
2018-03-31T02:54:23.953Z,18.03
2018-03-31T02:56:51.750Z,17.30
2018-03-31T02:59:19.543Z,18.60
2018-03-31T03:01:47.326Z,19.53
2018-03-31T03:04:15.154Z,18.27
2018-03-31T03:06:42.930Z,19.47
2018-03-31T03:09:10.731Z,18.97
2018-03-31T03:11:38.549Z,18.87
2018-03-31T03:14:06.347Z,21.43
2018-03-31T03:16:34.122Z,21.57
2018-03-31T03:19:01.940Z,21.67
2018-03-31T03:21:29.739Z,21.93
2018-03-31T03:23:57.531Z,22.20
2018-03-31T03:26:25.344Z,21.73
2018-03-31T03:28:53.138Z,22.27
2018-03-31T03:31:20.958Z,22.90
2018-03-31T03:33:48.731Z,23.23
2018-03-31T03:36:16.618Z,22.00
2018-03-31T03:38:44.385Z,22.40
2018-03-31T03:41:12.400Z,24.07
2018-03-31T03:43:40.290Z,24.73
2018-03-31T03:46:08.575Z,26.23
2018-03-31T03:48:36.355Z,26.73
2018-03-31T03:51:04.161Z,27.53
2018-03-31T03:53:31.936Z,26.50
2018-03-31T03:55:59.784Z,29.27
2018-03-31T03:58:27.562Z,28.00
2018-03-31T04:00:55.349Z,27.03
2018-03-31T04:03:23.126Z,29.27
2018-03-31T04:05:50.940Z,27.73
2018-03-31T04:08:18.723Z,26.43
2018-03-31T04:10:46.609Z,28.17
2018-03-31T04:13:14.384Z,29.57
2018-03-31T04:15:42.216Z,31.20
2018-03-31T04:18:10.227Z,30.83
2018-03-31T04:20:38.126Z,30.50
2018-03-31T04:23:06.007Z,31.30
2018-03-31T04:25:33.926Z,29.93
2018-03-31T04:28:01.708Z,31.27
2018-03-31T04:30:29.510Z,29.73
2018-03-31T04:32:57.285Z,29.20
2018-03-31T04:35:25.104Z,28.63
2018-03-31T04:37:52.921Z,29.87
2018-03-31T04:40:20.702Z,25.27
2018-03-31T04:42:48.493Z,28.10
2018-03-31T04:45:16.286Z,28.13
2018-03-31T04:47:44.061Z,30.40
2018-03-31T04:50:11.914Z,29.70
2018-03-31T04:52:39.728Z,27.80
2018-03-31T04:55:07.518Z,29.03
2018-03-31T04:57:35.308Z,29.03
2018-03-31T05:00:03.084Z,29.87
2018-03-31T05:02:30.895Z,28.50
2018-03-31T05:04:58.667Z,27.47
2018-03-31T05:07:26.471Z,27.60
2018-03-31T05:09:54.262Z,29.07
2018-03-31T05:12:22.074Z,30.30
2018-03-31T05:14:49.853Z,31.63
2018-03-31T05:17:17.652Z,30.87
2018-03-31T05:19:45.424Z,29.03
2018-03-31T05:22:13.247Z,31.27
2018-03-31T05:24:41.138Z,30.30
2018-03-31T05:27:08.943Z,30.00
2018-03-31T05:29:36.714Z,29.93
2018-03-31T05:32:04.542Z,28.80
2018-03-31T05:34:32.316Z,31.60
2018-03-31T05:37:00.114Z,30.77
2018-03-31T05:39:27.879Z,30.40
2018-03-31T05:41:55.740Z,29.80
2018-03-31T05:44:23.643Z,28.63
2018-03-31T05:46:51.453Z,31.60
2018-03-31T05:49:19.224Z,32.13
2018-03-31T05:51:47.001Z,29.57
2018-03-31T05:54:14.852Z,30.70
2018-03-31T05:56:42.631Z,30.50
2018-03-31T05:59:10.507Z,30.47
2018-03-31T06:01:38.474Z,31.90
2018-03-31T06:04:06.262Z,29.73
2018-03-31T06:06:34.104Z,29.23
2018-03-31T06:09:02.048Z,28.90
2018-03-31T06:11:29.820Z,29.57
2018-03-31T06:13:57.667Z,29.83
2018-03-31T06:16:25.431Z,29.63
2018-03-31T06:18:53.224Z,30.10
2018-03-31T06:21:21.019Z,28.83
2018-03-31T06:23:48.800Z,30.30
2018-03-31T06:26:16.649Z,31.33
2018-03-31T06:28:44.436Z,30.10
2018-03-31T06:31:12.228Z,29.83
2018-03-31T06:33:40.278Z,28.87
2018-03-31T06:36:08.076Z,28.10
2018-03-31T06:38:35.876Z,30.00
2018-03-31T06:41:03.683Z,34.47
2018-03-31T06:43:31.482Z,31.67
2018-03-31T06:45:59.259Z,31.50
2018-03-31T06:48:27.072Z,29.20
2018-03-31T06:50:54.856Z,28.67
2018-03-31T06:53:22.639Z,29.20
2018-03-31T06:55:50.494Z,28.43
2018-03-31T06:58:18.340Z,30.20
2018-03-31T07:00:46.130Z,30.90
2018-03-31T07:03:13.921Z,29.87
2018-03-31T07:05:41.714Z,28.87
2018-03-31T07:08:09.661Z,29.70
2018-03-31T07:10:37.487Z,27.60
2018-03-31T07:13:05.311Z,28.40
2018-03-31T07:15:33.195Z,28.93
2018-03-31T07:18:01.140Z,30.70
2018-03-31T07:20:29.016Z,28.03
2018-03-31T07:22:57.130Z,29.20
2018-03-31T07:25:24.972Z,30.37
2018-03-31T07:27:52.763Z,28.17
2018-03-31T07:30:20.620Z,26.10
2018-03-31T07:32:48.411Z,28.97
2018-03-31T07:35:16.192Z,27.20
2018-03-31T07:37:44.055Z,28.77
2018-03-31T07:40:11.891Z,29.83
2018-03-31T07:42:39.300Z,27.97
2018-03-31T07:45:06.877Z,29.27
2018-03-31T07:47:34.649Z,29.57
2018-03-31T07:50:02.638Z,29.63
2018-03-31T07:52:30.411Z,28.90
2018-03-31T07:54:58.202Z,30.73
2018-03-31T07:57:26.948Z,35.47
2018-03-31T07:59:54.736Z,31.07
2018-03-31T08:02:22.536Z,31.23
2018-03-31T08:04:50.335Z,29.13
2018-03-31T08:07:18.373Z,32.57
2018-03-31T08:09:46.261Z,28.60
2018-03-31T08:12:14.057Z,28.07
2018-03-31T08:14:41.844Z,27.20
2018-03-31T08:17:09.688Z,28.17
2018-03-31T08:19:37.975Z,29.67
2018-03-31T08:22:05.801Z,27.47
2018-03-31T08:24:33.591Z,29.50
2018-03-31T08:27:01.371Z,29.10
2018-03-31T08:29:29.177Z,35.57
2018-03-31T08:31:56.959Z,34.03
2018-03-31T08:34:24.842Z,34.97
2018-03-31T08:36:52.634Z,31.77
2018-03-31T08:39:20.440Z,31.37
2018-03-31T08:41:48.262Z,31.73
2018-03-31T08:44:16.155Z,33.27
2018-03-31T08:46:43.948Z,31.73
2018-03-31T08:49:11.792Z,35.07
2018-03-31T08:51:39.622Z,35.67
2018-03-31T08:54:07.428Z,33.90
2018-03-31T08:56:35.234Z,33.50
2018-03-31T08:59:03.040Z,34.10
2018-03-31T09:01:30.882Z,34.53
2018-03-31T09:03:58.824Z,33.53
2018-03-31T09:06:26.597Z,33.17
2018-03-31T09:08:54.444Z,33.83
2018-03-31T09:11:22.229Z,31.70
2018-03-31T09:13:50.057Z,31.40
2018-03-31T09:16:17.866Z,31.53
2018-03-31T09:18:45.661Z,32.77
2018-03-31T09:21:13.489Z,31.70
2018-03-31T09:23:41.298Z,32.00
2018-03-31T09:26:09.163Z,31.47
2018-03-31T09:28:37.295Z,29.90
2018-03-31T09:31:05.472Z,31.23
2018-03-31T09:33:33.679Z,29.30
2018-03-31T09:36:01.770Z,30.73
2018-03-31T09:38:29.728Z,33.40
2018-03-31T09:40:57.575Z,29.80
2018-03-31T09:43:25.871Z,32.97
2018-03-31T09:45:53.678Z,31.87
2018-03-31T09:48:21.501Z,32.13
2018-03-31T09:50:49.313Z,31.20
2018-03-31T09:53:17.116Z,31.50
2018-03-31T09:55:44.904Z,33.87
2018-03-31T09:58:12.679Z,32.93
2018-03-31T10:00:40.533Z,35.23
2018-03-31T10:03:08.378Z,33.70
2018-03-31T10:05:36.187Z,33.63
2018-03-31T10:08:03.959Z,34.57
2018-03-31T10:10:31.769Z,33.33
2018-03-31T10:12:59.544Z,33.33
2018-03-31T10:15:27.340Z,33.50
2018-03-31T10:17:55.176Z,31.53
2018-03-31T10:20:23.068Z,32.57
2018-03-31T10:22:50.855Z,32.17
2018-03-31T10:25:18.651Z,33.63
2018-03-31T10:27:46.416Z,33.63
2018-03-31T10:30:14.269Z,35.43
2018-03-31T10:32:42.153Z,34.70
2018-03-31T10:35:09.955Z,33.93
2018-03-31T10:37:37.762Z,30.97
2018-03-31T10:40:05.556Z,33.93
2018-03-31T10:42:33.392Z,32.23
2018-03-31T10:45:01.155Z,34.07
2018-03-31T10:47:28.937Z,34.07
2018-03-31T10:49:56.730Z,32.63
2018-03-31T10:52:24.510Z,31.73
2018-03-31T10:54:52.377Z,33.67
2018-03-31T10:57:20.147Z,32.73
2018-03-31T10:59:49.668Z,32.77
2018-03-31T11:02:17.445Z,35.13
2018-03-31T11:04:45.345Z,32.87
2018-03-31T11:07:13.159Z,34.47
2018-03-31T11:09:40.972Z,32.03
2018-03-31T11:12:08.910Z,32.40
2018-03-31T11:14:36.695Z,30.70
2018-03-31T11:17:04.533Z,31.63
2018-03-31T11:19:32.385Z,32.27
2018-03-31T11:22:00.166Z,31.97
2018-03-31T11:24:27.968Z,32.80
2018-03-31T11:26:56.068Z,33.93
2018-03-31T11:29:23.920Z,35.37
2018-03-31T11:31:51.863Z,31.27
2018-03-31T11:34:20.025Z,33.80
2018-03-31T11:36:47.873Z,37.67
2018-03-31T11:39:15.796Z,39.73
2018-03-31T11:41:43.575Z,35.00
2018-03-31T11:44:11.400Z,38.27
2018-03-31T11:46:39.338Z,36.33
2018-03-31T11:49:07.242Z,36.33
2018-03-31T11:51:35.048Z,34.77
2018-03-31T11:54:02.838Z,36.33
2018-03-31T11:56:30.723Z,34.47
2018-03-31T11:58:58.514Z,38.77
2018-03-31T12:01:26.328Z,37.40
2018-03-31T12:03:54.185Z,37.13
2018-03-31T12:06:22.036Z,37.30
2018-03-31T12:08:49.953Z,35.87
2018-03-31T12:11:17.717Z,36.93
2018-03-31T12:13:45.574Z,38.87
2018-03-31T12:16:13.366Z,37.83
2018-03-31T12:18:41.177Z,38.73
2018-03-31T12:21:08.955Z,38.17
2018-03-31T12:23:36.756Z,38.03
2018-03-31T12:26:04.765Z,41.67
2018-03-31T12:28:32.566Z,39.77
2018-03-31T12:31:00.576Z,39.53
2018-03-31T12:33:29.375Z,38.80
2018-03-31T12:35:57.180Z,39.47
2018-03-31T12:38:24.962Z,39.83
2018-03-31T12:40:52.756Z,39.17
2018-03-31T12:43:20.582Z,37.30
2018-03-31T12:45:48.413Z,41.37
2018-03-31T12:48:16.196Z,39.80
2018-03-31T12:50:43.988Z,40.13
2018-03-31T12:53:11.854Z,39.80
2018-03-31T12:55:39.638Z,40.33
2018-03-31T12:58:07.496Z,45.60
2018-03-31T13:00:35.348Z,34.57
2018-03-31T13:03:03.116Z,33.23
2018-03-31T13:05:30.940Z,35.40
2018-03-31T13:07:58.741Z,33.97
2018-03-31T13:10:27.383Z,36.13
2018-03-31T13:12:55.272Z,33.07
2018-03-31T13:15:23.066Z,32.70
2018-03-31T13:17:50.844Z,34.23
2018-03-31T13:20:18.639Z,30.93
2018-03-31T13:22:46.429Z,32.23
2018-03-31T13:25:14.319Z,33.47
2018-03-31T13:27:42.082Z,28.63
2018-03-31T13:30:09.936Z,30.83
2018-03-31T13:32:37.710Z,29.57
2018-03-31T13:35:05.639Z,28.50
2018-03-31T13:37:33.390Z,27.90
2018-03-31T13:40:01.212Z,31.30
2018-03-31T13:42:28.985Z,27.97
2018-03-31T13:44:56.801Z,28.47
2018-03-31T13:47:24.619Z,27.03
2018-03-31T13:49:52.427Z,27.77
2018-03-31T13:52:20.233Z,26.97
2018-03-31T13:54:48.016Z,26.73
2018-03-31T13:57:15.899Z,27.33
2018-03-31T13:59:43.766Z,29.90
2018-03-31T14:02:11.569Z,32.57
2018-03-31T14:04:39.390Z,28.73
2018-03-31T14:07:07.183Z,27.47
2018-03-31T14:09:34.973Z,27.63
2018-03-31T14:12:02.766Z,25.30
2018-03-31T14:14:30.557Z,28.17
2018-03-31T14:16:58.371Z,29.53
2018-03-31T14:19:26.148Z,27.47
2018-03-31T14:21:53.947Z,29.73
2018-03-31T14:24:21.721Z,27.10
2018-03-31T14:26:49.575Z,25.17
2018-03-31T14:29:17.431Z,24.77
2018-03-31T14:31:45.262Z,24.70
2018-03-31T14:34:13.117Z,22.67
2018-03-31T14:36:40.970Z,25.27
2018-03-31T14:39:09.018Z,25.30
2018-03-31T14:41:36.815Z,28.60
2018-03-31T14:44:04.602Z,30.27
2018-03-31T14:46:32.443Z,26.73
2018-03-31T14:49:00.280Z,28.77
2018-03-31T14:51:28.092Z,30.07
2018-03-31T14:53:55.869Z,29.60
2018-03-31T14:56:23.693Z,31.13
2018-03-31T14:58:51.476Z,33.80
2018-03-31T15:01:19.283Z,36.40
2018-03-31T15:03:47.039Z,30.90
2018-03-31T15:06:14.851Z,33.50
2018-03-31T15:08:48.933Z,35.70
2018-03-31T15:11:16.711Z,33.30
2018-03-31T15:13:44.533Z,31.60
2018-03-31T15:16:13.110Z,32.60
2018-03-31T15:18:40.845Z,29.87
2018-03-31T15:21:08.646Z,31.53
2018-03-31T15:23:36.419Z,31.33
2018-03-31T15:26:04.218Z,28.93
2018-03-31T15:28:32.156Z,31.47
2018-03-31T15:30:59.860Z,30.87
2018-03-31T15:33:28.524Z,33.23
2018-03-31T15:35:56.309Z,36.50
2018-03-31T15:38:24.103Z,37.77
2018-03-31T15:40:51.889Z,37.23
2018-03-31T15:43:19.686Z,41.30
2018-03-31T15:45:47.504Z,41.70
2018-03-31T15:48:15.357Z,39.97
2018-03-31T15:50:43.335Z,38.60
2018-03-31T15:53:11.194Z,42.63
2018-03-31T15:55:39.197Z,39.50
2018-03-31T15:58:07.046Z,42.50
2018-03-31T16:00:34.834Z,42.67
2018-03-31T16:03:02.633Z,42.47
2018-03-31T16:05:30.606Z,47.20
2018-03-31T16:07:58.674Z,44.17
2018-03-31T16:10:26.695Z,49.17
2018-03-31T16:12:54.455Z,46.33
2018-03-31T16:15:22.253Z,44.10
2018-03-31T16:17:50.031Z,50.10
2018-03-31T16:20:17.874Z,47.57
2018-03-31T16:22:45.705Z,49.70
2018-03-31T16:25:13.509Z,48.23
2018-03-31T16:27:41.354Z,46.67
2018-03-31T16:30:09.155Z,49.13
2018-03-31T16:32:36.929Z,47.83
2018-03-31T16:35:05.001Z,48.23
2018-03-31T16:37:32.790Z,49.13
2018-03-31T16:40:00.607Z,47.70
2018-03-31T16:42:28.372Z,50.00
2018-03-31T16:44:56.170Z,48.63
2018-03-31T16:47:24.069Z,49.17
2018-03-31T16:49:51.860Z,51.30
2018-03-31T16:52:19.676Z,54.27
2018-03-31T16:54:47.488Z,55.13
2018-03-31T16:57:15.282Z,55.73
2018-03-31T16:59:43.080Z,57.17
2018-03-31T17:02:10.844Z,57.27
2018-03-31T17:04:38.649Z,55.27
2018-03-31T17:07:06.423Z,54.77
2018-03-31T17:09:34.270Z,54.60
2018-03-31T17:12:02.044Z,52.20
2018-03-31T17:14:29.845Z,48.93
2018-03-31T17:16:57.623Z,50.07
2018-03-31T17:19:25.409Z,47.33
2018-03-31T17:21:53.311Z,48.97
2018-03-31T17:24:21.152Z,42.33
2018-03-31T17:26:48.948Z,48.33
2018-03-31T17:29:16.745Z,41.40
2018-03-31T17:31:44.537Z,41.57
2018-03-31T17:34:12.307Z,39.17
2018-03-31T17:36:40.364Z,39.40
2018-03-31T17:39:08.105Z,38.03
2018-03-31T17:41:35.996Z,40.07
2018-03-31T17:44:03.801Z,37.13
2018-03-31T17:46:31.645Z,37.80
2018-03-31T17:48:59.524Z,38.13
2018-03-31T17:51:27.304Z,34.37
2018-03-31T17:53:55.089Z,33.43
2018-03-31T17:56:22.884Z,35.47
2018-03-31T17:58:50.675Z,36.93
2018-03-31T18:01:18.486Z,36.27
2018-03-31T18:03:46.314Z,35.90
2018-03-31T18:06:14.198Z,36.83
2018-03-31T18:08:42.261Z,39.30
2018-03-31T18:11:10.157Z,39.20
2018-03-31T18:13:38.013Z,38.43
2018-03-31T18:16:05.813Z,38.30
2018-03-31T18:18:33.598Z,36.73
2018-03-31T18:21:01.517Z,35.47
2018-03-31T18:23:29.361Z,38.23
2018-03-31T18:25:57.128Z,35.07
2018-03-31T18:28:25.007Z,36.37
2018-03-31T18:30:52.885Z,34.93
2018-03-31T18:33:20.705Z,34.10
2018-03-31T18:35:48.471Z,31.93
2018-03-31T18:38:16.270Z,36.13
2018-03-31T18:40:44.062Z,33.30
2018-03-31T18:43:11.853Z,35.20
2018-03-31T18:45:39.648Z,35.63
2018-03-31T18:48:07.436Z,34.43
2018-03-31T18:50:35.325Z,34.53
2018-03-31T18:53:03.117Z,32.07
2018-03-31T18:55:30.974Z,33.03
2018-03-31T18:57:58.873Z,29.73
2018-03-31T19:00:26.643Z,28.33
2018-03-31T19:02:54.587Z,31.67
2018-03-31T19:05:22.356Z,29.40
2018-03-31T19:07:50.166Z,32.13
2018-03-31T19:10:18.044Z,29.03
2018-03-31T19:12:45.839Z,30.30
2018-03-31T19:15:13.704Z,30.03
2018-03-31T19:17:41.495Z,29.00
2018-03-31T19:20:09.269Z,26.70
2018-03-31T19:22:37.072Z,26.83
2018-03-31T19:28:04.855Z,28.40
2018-03-31T19:30:38.356Z,26.27
2018-03-31T19:33:06.138Z,25.40
2018-03-31T19:35:39.438Z,26.57
2018-03-31T19:38:07.321Z,24.03
2018-03-31T19:40:35.108Z,25.87
2018-03-31T19:43:02.994Z,24.40
2018-03-31T19:45:30.803Z,25.60
2018-03-31T19:47:58.638Z,23.87
2018-03-31T19:50:26.505Z,23.60
2018-03-31T19:52:54.302Z,22.40
2018-03-31T19:55:22.183Z,25.43
2018-03-31T19:57:50.939Z,23.40
2018-03-31T20:00:18.838Z,21.33
2018-03-31T20:02:46.662Z,21.97
2018-03-31T20:05:14.463Z,21.50
2018-03-31T20:07:42.274Z,23.57
2018-03-31T20:10:10.070Z,21.20
2018-03-31T20:12:37.847Z,22.97
2018-03-31T20:15:05.732Z,23.27
2018-03-31T20:17:33.506Z,27.10
2018-03-31T20:20:01.396Z,27.40
2018-03-31T20:22:29.162Z,25.73
2018-03-31T20:24:57.018Z,26.27
2018-03-31T20:27:24.799Z,28.30
2018-03-31T20:29:52.650Z,29.23
2018-03-31T20:32:20.498Z,30.13
2018-03-31T20:34:48.272Z,27.93
2018-03-31T20:37:16.092Z,29.53
2018-03-31T20:39:43.900Z,31.83
2018-03-31T20:42:11.740Z,31.07
2018-03-31T20:44:39.558Z,32.77
2018-03-31T20:47:07.362Z,29.17
2018-03-31T20:49:35.327Z,27.67
2018-03-31T20:52:03.210Z,27.47
2018-03-31T20:54:30.987Z,26.93
2018-03-31T20:56:58.804Z,28.30
2018-03-31T20:59:26.594Z,25.33
2018-03-31T21:01:54.417Z,26.60
2018-03-31T21:04:22.438Z,26.33
2018-03-31T21:06:50.225Z,27.23
2018-03-31T21:09:19.169Z,26.73
2018-03-31T21:11:46.957Z,29.53
2018-03-31T21:14:14.842Z,28.00
2018-03-31T21:16:42.732Z,26.57
2018-03-31T21:19:10.524Z,28.20
2018-03-31T21:21:38.313Z,28.33
2018-03-31T21:24:06.171Z,27.03
2018-03-31T21:26:33.966Z,27.77
2018-03-31T21:29:01.827Z,27.30
2018-03-31T21:31:29.632Z,26.93
2018-03-31T21:33:59.279Z,27.97
2018-03-31T21:36:27.100Z,27.20
2018-03-31T21:38:55.006Z,24.77
2018-03-31T21:41:22.802Z,25.47
2018-03-31T21:43:50.657Z,24.20
2018-03-31T21:46:18.438Z,24.47
2018-03-31T21:48:46.230Z,24.93
2018-03-31T21:51:14.071Z,23.37
2018-03-31T21:53:41.943Z,21.87
2018-03-31T21:56:09.762Z,22.40
2018-03-31T21:58:37.565Z,21.80
2018-03-31T22:01:05.357Z,23.23
2018-03-31T22:03:33.179Z,22.07
2018-03-31T22:06:01.022Z,23.67
2018-03-31T22:08:28.848Z,21.60
2018-03-31T22:10:56.629Z,22.60
2018-03-31T22:13:29.924Z,23.47
2018-03-31T22:15:57.717Z,24.80
2018-03-31T22:18:25.509Z,25.50
2018-03-31T22:20:53.294Z,24.37
2018-03-31T22:23:21.094Z,24.30
2018-03-31T22:25:49.123Z,24.33
2018-03-31T22:28:18.058Z,25.93
2018-03-31T22:30:45.847Z,25.40
2018-03-31T22:33:13.641Z,24.40
2018-03-31T22:35:41.530Z,24.33
2018-03-31T22:38:09.346Z,22.00
2018-03-31T22:40:37.130Z,23.23
2018-03-31T22:43:04.927Z,22.73
2018-03-31T22:45:32.791Z,21.63
2018-03-31T22:48:00.576Z,23.07
2018-03-31T22:50:28.419Z,21.57
2018-03-31T22:52:56.177Z,21.13
2018-03-31T22:55:24.035Z,21.27
2018-03-31T22:57:51.869Z,20.87
2018-03-31T23:00:19.784Z,21.50
2018-03-31T23:02:47.583Z,21.23
2018-03-31T23:05:15.479Z,20.47
2018-03-31T23:07:43.321Z,19.87
2018-03-31T23:10:11.816Z,21.07
2018-03-31T23:12:40.089Z,20.27
2018-03-31T23:15:07.887Z,21.13
2018-03-31T23:17:35.707Z,20.40
2018-03-31T23:20:03.592Z,21.23
2018-03-31T23:22:31.379Z,20.47
2018-03-31T23:24:59.228Z,22.10
2018-03-31T23:27:27.037Z,21.60
2018-03-31T23:29:54.848Z,21.13
2018-03-31T23:32:22.635Z,20.60
2018-03-31T23:34:50.457Z,16.17
2018-03-31T23:37:18.242Z,15.10
2018-03-31T23:39:46.117Z,14.83
2018-03-31T23:42:13.894Z,13.73
2018-03-31T23:44:41.727Z,12.10
2018-03-31T23:47:09.565Z,13.33
2018-03-31T23:49:37.373Z,11.87
2018-03-31T23:52:05.200Z,13.07
2018-03-31T23:54:33.004Z,11.50
2018-03-31T23:57:00.789Z,13.00
2018-03-31T23:59:28.564Z,11.30
